SARP/PSS METAR and TAF weather

Enter ICAO airport designator
Station Type Date Time Source
SARP METAR 2020/02/24 08:00 UTC NOAA

SARP 240800Z 18002KT CAVOK 22/18 Q1010


Station Type Date Time Source
SARP Decoded METAR 2020/02/24 08:00 UTC NOAA

Posadas Aero., Argentina (SARP) 27-22S 055-58W 133M
Feb 24, 2020 - 03:00 AM EST / 2020.02.24 0800 UTC
Wind: from the S (180 degrees) at 2 MPH (2 KT):0
Visibility: greater than 7 mile(s):0
Temperature: 71 F (22 C)
Dew Point: 64 F (18 C)
Relative Humidity: 78%
Pressure (altimeter): 29.83 in. Hg (1010 hPa)
ob: SARP 240800Z 18002KT CAVOK 22/18 Q1010
cycle: 8

Station Type Date Time Source
SARP TAF 2020/02/24 06:10 UTC NOAA

TAF COR SARP 240500Z 2406/2506 VRB03KT CAVOK TX30/2419Z TN19/2409Z PROB30 2415/2419 02010KT 9999 SCT035 FEW045TCU

Example: see airport list